sensor_id;sensor_type;location;lat;lon;timestamp;pressure;altitude;pressure_sealevel;temperature;humidity
62124;BME280;48110;47.532;19.078;2022-10-31T00:00:25;101068.97;;;11.59;100.00
62124;BME280;48110;47.532;19.078;2022-10-31T00:03:30;101066.88;;;11.70;100.00
62124;BME280;48110;47.532;19.078;2022-10-31T00:06:34;101062.34;;;11.63;100.00
62124;BME280;48110;47.532;19.078;2022-10-31T00:09:40;101062.19;;;11.64;100.00
62124;BME280;48110;47.532;19.078;2022-10-31T00:12:42;101065.53;;;11.66;100.00
62124;BME280;48110;47.532;19.078;2022-10-31T00:15:49;101064.69;;;11.66;100.00
62124;BME280;48110;47.532;19.078;2022-10-31T00:19:00;101059.38;;;11.66;100.00
62124;BME280;48110;47.532;19.078;2022-10-31T00:22:07;101051.78;;;11.71;100.00
62124;BME280;48110;47.532;19.078;2022-10-31T00:25:13;101061.03;;;11.67;100.00
62124;BME280;48110;47.532;19.078;2022-10-31T00:28:19;101062.62;;;11.52;100.00
62124;BME280;48110;47.532;19.078;2022-10-31T00:31:26;101060.97;;;11.51;100.00
62124;BME280;48110;47.532;19.078;2022-10-31T00:34:35;101059.16;;;11.59;100.00
62124;BME280;48110;47.532;19.078;2022-10-31T00:37:41;101065.66;;;11.57;100.00
62124;BME280;48110;47.532;19.078;2022-10-31T00:40:50;101057.00;;;11.55;100.00
62124;BME280;48110;47.532;19.078;2022-10-31T00:43:58;101056.12;;;11.46;100.00
62124;BME280;48110;47.532;19.078;2022-10-31T00:47:04;101051.47;;;11.48;100.00
62124;BME280;48110;47.532;19.078;2022-10-31T00:50:13;101056.94;;;11.47;100.00
62124;BME280;48110;47.532;19.078;2022-10-31T00:53:21;101049.75;;;11.39;100.00
62124;BME280;48110;47.532;19.078;2022-10-31T00:56:28;101044.06;;;11.34;100.00
62124;BME280;48110;47.532;19.078;2022-10-31T00:59:34;101044.53;;;11.29;100.00
62124;BME280;48110;47.532;19.078;2022-10-31T01:02:40;101044.06;;;11.34;100.00
62124;BME280;48110;47.532;19.078;2022-10-31T01:09:23;101050.22;;;11.34;100.00
62124;BME280;48110;47.532;19.078;2022-10-31T01:12:44;101043.78;;;11.37;100.00
62124;BME280;48110;47.532;19.078;2022-10-31T01:15:55;101046.22;;;11.30;100.00
62124;BME280;48110;47.532;19.078;2022-10-31T01:19:02;101041.50;;;11.24;100.00
62124;BME280;48110;47.532;19.078;2022-10-31T01:22:08;101034.44;;;11.33;100.00
62124;BME280;48110;47.532;19.078;2022-10-31T01:25:17;101037.09;;;11.33;100.00
62124;BME280;48110;47.532;19.078;2022-10-31T01:28:23;101036.28;;;11.32;100.00
62124;BME280;48110;47.532;19.078;2022-10-31T01:31:33;101032.56;;;11.25;100.00
62124;BME280;48110;47.532;19.078;2022-10-31T01:34:42;101037.88;;;11.25;100.00
62124;BME280;48110;47.532;19.078;2022-10-31T01:37:50;101025.00;;;11.39;100.00
62124;BME280;48110;47.532;19.078;2022-10-31T01:40:58;101030.16;;;11.40;100.00
62124;BME280;48110;47.532;19.078;2022-10-31T01:47:40;101019.63;;;11.22;100.00
62124;BME280;48110;47.532;19.078;2022-10-31T01:50:47;101024.22;;;11.20;100.00
62124;BME280;48110;47.532;19.078;2022-10-31T01:53:58;101024.84;;;11.14;100.00
62124;BME280;48110;47.532;19.078;2022-10-31T01:57:07;101021.34;;;11.14;100.00
62124;BME280;48110;47.532;19.078;2022-10-31T02:00:16;101018.31;;;11.09;100.00
62124;BME280;48110;47.532;19.078;2022-10-31T02:03:23;101020.19;;;11.08;100.00
62124;BME280;48110;47.532;19.078;2022-10-31T02:06:34;101029.06;;;10.99;100.00
62124;BME280;48110;47.532;19.078;2022-10-31T02:09:42;101025.28;;;11.02;100.00
62124;BME280;48110;47.532;19.078;2022-10-31T02:12:51;101020.97;;;11.09;100.00
62124;BME280;48110;47.532;19.078;2022-10-31T02:16:02;101018.88;;;11.12;100.00
62124;BME280;48110;47.532;19.078;2022-10-31T02:19:08;101022.16;;;11.06;100.00
62124;BME280;48110;47.532;19.078;2022-10-31T02:35:28;101017.34;;;11.10;100.00
62124;BME280;48110;47.532;19.078;2022-10-31T02:38:59;101015.41;;;10.94;100.00
62124;BME280;48110;47.532;19.078;2022-10-31T02:42:13;101017.91;;;10.96;100.00
62124;BME280;48110;47.532;19.078;2022-10-31T02:45:26;101021.44;;;11.04;100.00
62124;BME280;48110;47.532;19.078;2022-10-31T02:48:38;101026.56;;;10.98;100.00
62124;BME280;48110;47.532;19.078;2022-10-31T02:51:46;101030.66;;;10.92;100.00
62124;BME280;48110;47.532;19.078;2022-10-31T02:54:53;101030.75;;;10.82;100.00
62124;BME280;48110;47.532;19.078;2022-10-31T02:58:06;101027.25;;;10.82;100.00
62124;BME280;48110;47.532;19.078;2022-10-31T03:08:20;101037.84;;;11.00;100.00
62124;BME280;48110;47.532;19.078;2022-10-31T03:11:36;101036.22;;;10.99;100.00
62124;BME280;48110;47.532;19.078;2022-10-31T03:14:53;101036.22;;;10.99;100.00
62124;BME280;48110;47.532;19.078;2022-10-31T03:24:17;101056.34;;;11.09;100.00
62124;BME280;48110;47.532;19.078;2022-10-31T03:27:25;101047.63;;;11.17;100.00
62124;BME280;48110;47.532;19.078;2022-10-31T03:30:33;101050.13;;;11.01;100.00
62124;BME280;48110;47.532;19.078;2022-10-31T03:33:45;101047.50;;;11.01;100.00
62124;BME280;48110;47.532;19.078;2022-10-31T03:36:52;101048.69;;;11.06;100.00
62124;BME280;48110;47.532;19.078;2022-10-31T03:40:01;101058.66;;;10.86;100.00
62124;BME280;48110;47.532;19.078;2022-10-31T03:43:10;101054.72;;;10.90;100.00
62124;BME280;48110;47.532;19.078;2022-10-31T03:46:19;101055.69;;;10.89;100.00
62124;BME280;48110;47.532;19.078;2022-10-31T03:49:26;101055.25;;;10.76;100.00
62124;BME280;48110;47.532;19.078;2022-10-31T03:55:52;101054.25;;;10.95;100.00
62124;BME280;48110;47.532;19.078;2022-10-31T03:59:02;101055.22;;;10.94;100.00
62124;BME280;48110;47.532;19.078;2022-10-31T04:02:14;101065.09;;;11.02;100.00
62124;BME280;48110;47.532;19.078;2022-10-31T04:05:21;101058.44;;;10.98;100.00
62124;BME280;48110;47.532;19.078;2022-10-31T04:08:32;101059.03;;;10.92;100.00
62124;BME280;48110;47.532;19.078;2022-10-31T04:11:48;101055.16;;;10.86;100.00
62124;BME280;48110;47.532;19.078;2022-10-31T04:14:57;101051.16;;;10.82;100.00
62124;BME280;48110;47.532;19.078;2022-10-31T04:18:04;101056.75;;;10.97;100.00
62124;BME280;48110;47.532;19.078;2022-10-31T04:21:11;101053.78;;;11.00;100.00
62124;BME280;48110;47.532;19.078;2022-10-31T04:24:19;101057.22;;;10.92;100.00
62124;BME280;48110;47.532;19.078;2022-10-31T04:27:26;101068.66;;;10.93;100.00
62124;BME280;48110;47.532;19.078;2022-10-31T04:30:33;101067.00;;;10.92;100.00
62124;BME280;48110;47.532;19.078;2022-10-31T04:33:41;101067.22;;;10.80;100.00
62124;BME280;48110;47.532;19.078;2022-10-31T04:36:48;101072.62;;;10.88;100.00
62124;BME280;48110;47.532;19.078;2022-10-31T04:39:56;101068.66;;;10.93;100.00
62124;BME280;48110;47.532;19.078;2022-10-31T04:43:04;101065.41;;;10.99;100.00
62124;BME280;48110;47.532;19.078;2022-10-31T04:46:11;101072.38;;;11.00;100.00
62124;BME280;48110;47.532;19.078;2022-10-31T04:49:19;101067.28;;;11.06;100.00
62124;BME280;48110;47.532;19.078;2022-10-31T04:52:26;101072.38;;;11.00;100.00
62124;BME280;48110;47.532;19.078;2022-10-31T04:55:32;101071.53;;;11.17;100.00
62124;BME280;48110;47.532;19.078;2022-10-31T04:58:40;101081.88;;;11.28;100.00
62124;BME280;48110;47.532;19.078;2022-10-31T05:01:47;101076.28;;;11.31;100.00
62124;BME280;48110;47.532;19.078;2022-10-31T05:04:54;101078.19;;;11.21;100.00
62124;BME280;48110;47.532;19.078;2022-10-31T05:08:02;101080.63;;;11.14;100.00
62124;BME280;48110;47.532;19.078;2022-10-31T05:11:09;101070.78;;;11.07;100.00
62124;BME280;48110;47.532;19.078;2022-10-31T05:14:18;101088.91;;;11.11;100.00
62124;BME280;48110;47.532;19.078;2022-10-31T05:17:32;101087.53;;;11.07;100.00
62124;BME280;48110;47.532;19.078;2022-10-31T05:20:39;101075.72;;;11.02;100.00
62124;BME280;48110;47.532;19.078;2022-10-31T05:23:48;101082.16;;;10.99;100.00
62124;BME280;48110;47.532;19.078;2022-10-31T05:26:57;101085.88;;;11.06;100.00
62124;BME280;48110;47.532;19.078;2022-10-31T05:30:05;101077.84;;;10.98;100.00
62124;BME280;48110;47.532;19.078;2022-10-31T05:33:13;101081.25;;;11.08;100.00
62124;BME280;48110;47.532;19.078;2022-10-31T05:36:23;101092.06;;;11.15;100.00
62124;BME280;48110;47.532;19.078;2022-10-31T05:39:32;101092.16;;;11.23;100.00
62124;BME280;48110;47.532;19.078;2022-10-31T05:42:39;101088.94;;;11.19;100.00
62124;BME280;48110;47.532;19.078;2022-10-31T05:45:52;101091.47;;;11.21;100.00
62124;BME280;48110;47.532;19.078;2022-10-31T05:49:01;101101.31;;;11.28;100.00
62124;BME280;48110;47.532;19.078;2022-10-31T05:52:14;101095.81;;;11.04;100.00
62124;BME280;48110;47.532;19.078;2022-10-31T05:55:20;101091.66;;;11.02;100.00
62124;BME280;48110;47.532;19.078;2022-10-31T05:58:29;101092.69;;;11.09;100.00
62124;BME280;48110;47.532;19.078;2022-10-31T06:01:35;101093.38;;;11.11;100.00
62124;BME280;48110;47.532;19.078;2022-10-31T06:04:47;101093.59;;;11.17;100.00
62124;BME280;48110;47.532;19.078;2022-10-31T06:07:55;101100.72;;;10.99;100.00
62124;BME280;48110;47.532;19.078;2022-10-31T06:11:04;101098.91;;;11.00;100.00
62124;BME280;48110;47.532;19.078;2022-10-31T06:14:10;101099.38;;;11.13;100.00
62124;BME280;48110;47.532;19.078;2022-10-31T06:17:19;101089.41;;;11.15;100.00
62124;BME280;48110;47.532;19.078;2022-10-31T06:20:27;101097.87;;;10.93;100.00
62124;BME280;48110;47.532;19.078;2022-10-31T06:23:34;101090.03;;;11.09;100.00
62124;BME280;48110;47.532;19.078;2022-10-31T06:26:43;101090.41;;;11.14;100.00
62124;BME280;48110;47.532;19.078;2022-10-31T06:29:52;101092.69;;;11.26;100.00
62124;BME280;48110;47.532;19.078;2022-10-31T06:33:01;101101.78;;;11.24;100.00
62124;BME280;48110;47.532;19.078;2022-10-31T06:36:09;101108.34;;;11.38;100.00
62124;BME280;48110;47.532;19.078;2022-10-31T06:39:15;101112.19;;;11.43;100.00
62124;BME280;48110;47.532;19.078;2022-10-31T06:42:20;101121.22;;;11.50;100.00
62124;BME280;48110;47.532;19.078;2022-10-31T06:45:27;101126.41;;;11.52;100.00
62124;BME280;48110;47.532;19.078;2022-10-31T06:48:42;101118.56;;;11.50;100.00
62124;BME280;48110;47.532;19.078;2022-10-31T06:51:51;101129.63;;;11.63;100.00
62124;BME280;48110;47.532;19.078;2022-10-31T06:54:57;101136.25;;;11.59;100.00
62124;BME280;48110;47.532;19.078;2022-10-31T06:58:08;101137.06;;;11.60;100.00
62124;BME280;48110;47.532;19.078;2022-10-31T07:01:15;101133.59;;;11.59;100.00
62124;BME280;48110;47.532;19.078;2022-10-31T07:04:22;101127.41;;;11.76;100.00
62124;BME280;48110;47.532;19.078;2022-10-31T07:07:31;101129.16;;;11.68;100.00
62124;BME280;48110;47.532;19.078;2022-10-31T07:10:37;101131.22;;;12.00;100.00
62124;BME280;48110;47.532;19.078;2022-10-31T07:13:47;101131.94;;;12.18;100.00
62124;BME280;48110;47.532;19.078;2022-10-31T07:16:54;101141.59;;;12.19;100.00
62124;BME280;48110;47.532;19.078;2022-10-31T07:20:05;101132.50;;;11.96;100.00
62124;BME280;48110;47.532;19.078;2022-10-31T07:23:12;101132.06;;;11.74;100.00
62124;BME280;48110;47.532;19.078;2022-10-31T07:26:20;101135.34;;;12.02;100.00
62124;BME280;48110;47.532;19.078;2022-10-31T07:29:24;101143.09;;;11.88;100.00
62124;BME280;48110;47.532;19.078;2022-10-31T07:32:39;101150.69;;;11.83;100.00
62124;BME280;48110;47.532;19.078;2022-10-31T07:35:46;101139.34;;;11.72;100.00
62124;BME280;48110;47.532;19.078;2022-10-31T07:38:53;101151.09;;;11.70;100.00
62124;BME280;48110;47.532;19.078;2022-10-31T07:41:59;101149.50;;;11.77;100.00
62124;BME280;48110;47.532;19.078;2022-10-31T07:45:08;101141.41;;;11.87;100.00
62124;BME280;48110;47.532;19.078;2022-10-31T07:48:19;101147.19;;;12.08;100.00
62124;BME280;48110;47.532;19.078;2022-10-31T07:51:28;101149.88;;;12.16;100.00
62124;BME280;48110;47.532;19.078;2022-10-31T07:54:37;101149.41;;;12.20;100.00
62124;BME280;48110;47.532;19.078;2022-10-31T07:57:54;101149.34;;;12.04;100.00
62124;BME280;48110;47.532;19.078;2022-10-31T08:01:02;101146.38;;;12.15;100.00
62124;BME280;48110;47.532;19.078;2022-10-31T08:04:14;101152.72;;;12.14;100.00
62124;BME280;48110;47.532;19.078;2022-10-31T08:07:23;101146.34;;;12.07;100.00
62124;BME280;48110;47.532;19.078;2022-10-31T08:10:30;101152.78;;;11.97;100.00
62124;BME280;48110;47.532;19.078;2022-10-31T08:13:38;101151.78;;;11.98;100.00
62124;BME280;48110;47.532;19.078;2022-10-31T08:16:45;101150.47;;;12.02;100.00
62124;BME280;48110;47.532;19.078;2022-10-31T08:19:52;101151.19;;;12.12;100.00
62124;BME280;48110;47.532;19.078;2022-10-31T08:23:03;101154.66;;;12.04;100.00
62124;BME280;48110;47.532;19.078;2022-10-31T08:26:09;101157.16;;;12.06;100.00
62124;BME280;48110;47.532;19.078;2022-10-31T08:29:15;101154.44;;;11.98;100.00
62124;BME280;48110;47.532;19.078;2022-10-31T08:32:20;101152.06;;;12.20;100.00
62124;BME280;48110;47.532;19.078;2022-10-31T08:35:32;101155.06;;;11.92;100.00
62124;BME280;48110;47.532;19.078;2022-10-31T08:38:42;101152.72;;;12.14;100.00
62124;BME280;48110;47.532;19.078;2022-10-31T08:41:50;101155.44;;;12.31;100.00
62124;BME280;48110;47.532;19.078;2022-10-31T08:44:58;101158.44;;;12.36;100.00
62124;BME280;48110;47.532;19.078;2022-10-31T08:48:07;101153.06;;;12.61;100.00
62124;BME280;48110;47.532;19.078;2022-10-31T08:51:14;101150.06;;;12.64;100.00
62124;BME280;48110;47.532;19.078;2022-10-31T08:54:20;101156.72;;;12.69;100.00
62124;BME280;48110;47.532;19.078;2022-10-31T08:57:32;101152.22;;;12.69;100.00
62124;BME280;48110;47.532;19.078;2022-10-31T09:00:40;101161.31;;;12.42;100.00
62124;BME280;48110;47.532;19.078;2022-10-31T09:03:45;101159.53;;;12.17;100.00
62124;BME280;48110;47.532;19.078;2022-10-31T09:06:50;101167.06;;;12.30;100.00
62124;BME280;48110;47.532;19.078;2022-10-31T09:10:14;101168.00;;;12.54;100.00
62124;BME280;48110;47.532;19.078;2022-10-31T09:13:20;101173.66;;;12.59;100.00
62124;BME280;48110;47.532;19.078;2022-10-31T09:16:34;101169.53;;;12.57;100.00
62124;BME280;48110;47.532;19.078;2022-10-31T09:19:40;101165.47;;;12.45;100.00
62124;BME280;48110;47.532;19.078;2022-10-31T09:22:47;101167.66;;;12.49;100.00
62124;BME280;48110;47.532;19.078;2022-10-31T09:25:53;101168.53;;;12.66;100.00
62124;BME280;48110;47.532;19.078;2022-10-31T09:29:01;101173.84;;;12.58;100.00
62124;BME280;48110;47.532;19.078;2022-10-31T09:32:09;101170.66;;;12.54;100.00
62124;BME280;48110;47.532;19.078;2022-10-31T09:35:16;101169.03;;;12.70;100.00
62124;BME280;48110;47.532;19.078;2022-10-31T09:38:29;101174.72;;;12.75;100.00
62124;BME280;48110;47.532;19.078;2022-10-31T09:41:53;101168.19;;;12.61;100.00
62124;BME280;48110;47.532;19.078;2022-10-31T09:51:42;101172.19;;;12.65;100.00
62124;BME280;48110;47.532;19.078;2022-10-31T09:54:57;101179.09;;;12.42;100.00
62124;BME280;48110;47.532;19.078;2022-10-31T09:58:05;101171.34;;;12.56;100.00
62124;BME280;48110;47.532;19.078;2022-10-31T10:01:17;101171.19;;;12.58;100.00
62124;BME280;48110;47.532;19.078;2022-10-31T10:20:39;101162.78;;;12.95;100.00
62124;BME280;48110;47.532;19.078;2022-10-31T10:23:51;101162.94;;;12.93;100.00
62124;BME280;48110;47.532;19.078;2022-10-31T10:30:17;101165.16;;;12.48;100.00
62124;BME280;48110;47.532;19.078;2022-10-31T10:33:28;101160.91;;;12.63;100.00
62124;BME280;48110;47.532;19.078;2022-10-31T10:36:42;101150.91;;;12.65;100.00
62124;BME280;48110;47.532;19.078;2022-10-31T10:39:52;101145.47;;;12.91;100.00
62124;BME280;48110;47.532;19.078;2022-10-31T10:46:29;101146.38;;;13.24;100.00
62124;BME280;48110;47.532;19.078;2022-10-31T10:49:58;101147.03;;;13.26;100.00
62124;BME280;48110;47.532;19.078;2022-10-31T10:59:40;101155.31;;;13.06;100.00
62124;BME280;48110;47.532;19.078;2022-10-31T11:02:47;101156.28;;;12.97;100.00
62124;BME280;48110;47.532;19.078;2022-10-31T11:05:56;101145.31;;;12.92;100.00
62124;BME280;48110;47.532;19.078;2022-10-31T11:09:09;101142.47;;;12.86;100.00
62124;BME280;48110;47.532;19.078;2022-10-31T11:12:27;101144.97;;;12.95;100.00
62124;BME280;48110;47.532;19.078;2022-10-31T11:15:37;101137.97;;;12.94;100.00
62124;BME280;48110;47.532;19.078;2022-10-31T11:18:46;101143.22;;;12.54;100.00
62124;BME280;48110;47.532;19.078;2022-10-31T11:21:53;101135.75;;;12.57;100.00
62124;BME280;48110;47.532;19.078;2022-10-31T11:24:58;101144.09;;;12.79;100.00
62124;BME280;48110;47.532;19.078;2022-10-31T11:28:05;101136.16;;;12.87;100.00
62124;BME280;48110;47.532;19.078;2022-10-31T11:31:15;101135.81;;;12.90;100.00
62124;BME280;48110;47.532;19.078;2022-10-31T11:34:23;101134.31;;;12.95;100.00
62124;BME280;48110;47.532;19.078;2022-10-31T11:37:32;101132.16;;;13.07;100.00
62124;BME280;48110;47.532;19.078;2022-10-31T11:40:40;101127.09;;;12.63;100.00
62124;BME280;48110;47.532;19.078;2022-10-31T11:43:56;101119.03;;;12.31;100.00
62124;BME280;48110;47.532;19.078;2022-10-31T11:47:06;101114.47;;;12.57;100.00
62124;BME280;48110;47.532;19.078;2022-10-31T11:50:19;101123.34;;;12.82;100.00
62124;BME280;48110;47.532;19.078;2022-10-31T11:53:28;101124.50;;;12.96;100.00
62124;BME280;48110;47.532;19.078;2022-10-31T11:56:39;101121.50;;;12.99;100.00
62124;BME280;48110;47.532;19.078;2022-10-31T11:59:49;101117.81;;;12.84;100.00
62124;BME280;48110;47.532;19.078;2022-10-31T12:03:42;101126.84;;;12.91;100.00
62124;BME280;48110;47.532;19.078;2022-10-31T12:06:30;101128.34;;;13.10;100.00
62124;BME280;48110;47.532;19.078;2022-10-31T12:09:36;101123.22;;;13.24;100.00
62124;BME280;48110;47.532;19.078;2022-10-31T12:15:51;101121.34;;;12.92;100.00
62124;BME280;48110;47.532;19.078;2022-10-31T12:19:09;101125.69;;;13.01;100.00
62124;BME280;48110;47.532;19.078;2022-10-31T12:22:22;101122.03;;;13.11;100.00
62124;BME280;48110;47.532;19.078;2022-10-31T12:25:35;101123.03;;;13.18;100.00
62124;BME280;48110;47.532;19.078;2022-10-31T12:28:47;101123.50;;;12.97;100.00
62124;BME280;48110;47.532;19.078;2022-10-31T12:32:03;101127.28;;;12.78;100.00
62124;BME280;48110;47.532;19.078;2022-10-31T12:35:25;101123.50;;;12.81;100.00
62124;BME280;48110;47.532;19.078;2022-10-31T12:38:58;101131.81;;;12.86;100.00
62124;BME280;48110;47.532;19.078;2022-10-31T12:42:22;101120.63;;;12.66;100.00
62124;BME280;48110;47.532;19.078;2022-10-31T12:45:50;101119.78;;;12.66;100.00
62124;BME280;48110;47.532;19.078;2022-10-31T12:58:42;101110.81;;;12.58;100.00
62124;BME280;48110;47.532;19.078;2022-10-31T13:01:51;101120.00;;;12.80;100.00
62124;BME280;48110;47.532;19.078;2022-10-31T13:08:06;101108.44;;;12.55;100.00
62124;BME280;48110;47.532;19.078;2022-10-31T13:11:15;101113.53;;;12.25;100.00
62124;BME280;48110;47.532;19.078;2022-10-31T13:17:41;101106.22;;;12.35;100.00
62124;BME280;48110;47.532;19.078;2022-10-31T13:20:48;101108.50;;;12.22;100.00
62124;BME280;48110;47.532;19.078;2022-10-31T13:23:59;101102.72;;;12.26;100.00
62124;BME280;48110;47.532;19.078;2022-10-31T13:27:11;101106.00;;;12.20;100.00
62124;BME280;48110;47.532;19.078;2022-10-31T13:30:19;101113.34;;;12.26;100.00
62124;BME280;48110;47.532;19.078;2022-10-31T13:34:00;101102.63;;;12.44;100.00
62124;BME280;48110;47.532;19.078;2022-10-31T13:40:28;101107.84;;;12.19;100.00
62124;BME280;48110;47.532;19.078;2022-10-31T13:46:52;101102.31;;;12.05;100.00
62124;BME280;48110;47.532;19.078;2022-10-31T13:50:18;101103.44;;;12.02;100.00
62124;BME280;48110;47.532;19.078;2022-10-31T13:56:47;101109.00;;;12.17;100.00
62124;BME280;48110;47.532;19.078;2022-10-31T13:59:54;101113.00;;;12.21;100.00
62124;BME280;48110;47.532;19.078;2022-10-31T14:03:01;101099.53;;;12.23;100.00
62124;BME280;48110;47.532;19.078;2022-10-31T14:06:09;101099.69;;;12.21;100.00
62124;BME280;48110;47.532;19.078;2022-10-31T14:09:19;101107.69;;;12.21;100.00
62124;BME280;48110;47.532;19.078;2022-10-31T14:12:30;101099.91;;;12.28;100.00
62124;BME280;48110;47.532;19.078;2022-10-31T14:15:36;101102.22;;;12.23;100.00
62124;BME280;48110;47.532;19.078;2022-10-31T14:18:48;101103.59;;;12.01;100.00
62124;BME280;48110;47.532;19.078;2022-10-31T14:21:58;101101.28;;;12.06;100.00
62124;BME280;48110;47.532;19.078;2022-10-31T14:28:32;101110.09;;;12.06;100.00
62124;BME280;48110;47.532;19.078;2022-10-31T14:31:44;101101.66;;;12.11;100.00
62124;BME280;48110;47.532;19.078;2022-10-31T14:34:57;101099.66;;;12.05;100.00
62124;BME280;48110;47.532;19.078;2022-10-31T14:38:09;101103.66;;;12.09;100.00
62124;BME280;48110;47.532;19.078;2022-10-31T14:41:36;101094.81;;;12.00;100.00
62124;BME280;48110;47.532;19.078;2022-10-31T14:45:23;101090.63;;;11.98;100.00
62124;BME280;48110;47.532;19.078;2022-10-31T14:51:29;101090.53;;;11.82;100.00
62124;BME280;48110;47.532;19.078;2022-10-31T14:54:38;101104.00;;;11.80;100.00
62124;BME280;48110;47.532;19.078;2022-10-31T14:57:50;101097.22;;;11.86;100.00
62124;BME280;48110;47.532;19.078;2022-10-31T15:00:58;101101.87;;;11.84;100.00
62124;BME280;48110;47.532;19.078;2022-10-31T15:04:13;101107.16;;;11.75;100.00
62124;BME280;48110;47.532;19.078;2022-10-31T15:07:27;101108.03;;;11.84;100.00
62124;BME280;48110;47.532;19.078;2022-10-31T15:10:38;101106.97;;;11.77;100.00
62124;BME280;48110;47.532;19.078;2022-10-31T15:13:51;101103.31;;;11.78;100.00
62124;BME280;48110;47.532;19.078;2022-10-31T15:17:01;101102.28;;;11.71;100.00
62124;BME280;48110;47.532;19.078;2022-10-31T15:20:11;101098.53;;;11.56;100.00
62124;BME280;48110;47.532;19.078;2022-10-31T15:23:26;101099.19;;;11.58;100.00
62124;BME280;48110;47.532;19.078;2022-10-31T15:26:34;101099.34;;;11.56;100.00
62124;BME280;48110;47.532;19.078;2022-10-31T15:29:52;101096.66;;;11.74;100.00
62124;BME280;48110;47.532;19.078;2022-10-31T15:33:00;101103.41;;;11.68;100.00
62124;BME280;48110;47.532;19.078;2022-10-31T15:36:21;101094.69;;;11.58;100.00
62124;BME280;48110;47.532;19.078;2022-10-31T15:39:34;101103.38;;;11.60;100.00
62124;BME280;48110;47.532;19.078;2022-10-31T15:42:45;101100.31;;;11.73;100.00
62124;BME280;48110;47.532;19.078;2022-10-31T15:45:52;101104.56;;;11.66;100.00
62124;BME280;48110;47.532;19.078;2022-10-31T15:48:58;101102.38;;;11.61;100.00
62124;BME280;48110;47.532;19.078;2022-10-31T15:52:10;101105.03;;;11.61;100.00
62124;BME280;48110;47.532;19.078;2022-10-31T15:55:20;101109.19;;;11.64;100.00
62124;BME280;48110;47.532;19.078;2022-10-31T15:58:27;101112.47;;;11.58;100.00
62124;BME280;48110;47.532;19.078;2022-10-31T16:01:36;101109.34;;;11.62;100.00
62124;BME280;48110;47.532;19.078;2022-10-31T16:04:54;101118.25;;;11.53;100.00
62124;BME280;48110;47.532;19.078;2022-10-31T16:08:02;101119.97;;;11.62;100.00
62124;BME280;48110;47.532;19.078;2022-10-31T16:14:20;101128.69;;;11.47;100.00
62124;BME280;48110;47.532;19.078;2022-10-31T16:17:29;101124.50;;;11.44;100.00
62124;BME280;48110;47.532;19.078;2022-10-31T16:20:36;101132.31;;;11.46;100.00
62124;BME280;48110;47.532;19.078;2022-10-31T16:23:45;101132.00;;;11.49;100.00
62124;BME280;48110;47.532;19.078;2022-10-31T16:26:54;101134.87;;;11.55;100.00
62124;BME280;48110;47.532;19.078;2022-10-31T16:30:01;101135.88;;;11.54;100.00
62124;BME280;48110;47.532;19.078;2022-10-31T16:33:28;101136.72;;;11.55;100.00
62124;BME280;48110;47.532;19.078;2022-10-31T16:36:35;101137.19;;;11.50;100.00
62124;BME280;48110;47.532;19.078;2022-10-31T16:39:46;101149.13;;;11.28;100.00
62124;BME280;48110;47.532;19.078;2022-10-31T16:42:56;101154.50;;;11.37;100.00
62124;BME280;48110;47.532;19.078;2022-10-31T16:46:02;101161.47;;;11.38;100.00
62124;BME280;48110;47.532;19.078;2022-10-31T16:49:10;101151.41;;;11.41;100.00
62124;BME280;48110;47.532;19.078;2022-10-31T16:52:16;101156.09;;;11.47;100.00
62124;BME280;48110;47.532;19.078;2022-10-31T16:55:22;101156.84;;;11.40;100.00
62124;BME280;48110;47.532;19.078;2022-10-31T16:58:32;101162.78;;;11.33;100.00
62124;BME280;48110;47.532;19.078;2022-10-31T17:01:41;101167.94;;;11.35;100.00
62124;BME280;48110;47.532;19.078;2022-10-31T17:04:52;101164.69;;;11.23;100.00
62124;BME280;48110;47.532;19.078;2022-10-31T17:08:00;101171.28;;;11.19;100.00
62124;BME280;48110;47.532;19.078;2022-10-31T17:11:07;101170.91;;;11.14;100.00
62124;BME280;48110;47.532;19.078;2022-10-31T17:14:15;101171.28;;;11.19;100.00
62124;BME280;48110;47.532;19.078;2022-10-31T17:17:20;101173.63;;;11.05;100.00
62124;BME280;48110;47.532;19.078;2022-10-31T17:20:29;101176.47;;;11.03;100.00
62124;BME280;48110;47.532;19.078;2022-10-31T17:23:35;101176.37;;;10.95;100.00
62124;BME280;48110;47.532;19.078;2022-10-31T17:26:43;101170.06;;;10.96;100.00
62124;BME280;48110;47.532;19.078;2022-10-31T17:29:49;101170.31;;;11.03;100.00
62124;BME280;48110;47.532;19.078;2022-10-31T17:32:58;101171.81;;;11.05;100.00
62124;BME280;48110;47.532;19.078;2022-10-31T17:36:05;101173.56;;;10.97;100.00
62124;BME280;48110;47.532;19.078;2022-10-31T17:39:15;101171.63;;;10.99;100.00
62124;BME280;48110;47.532;19.078;2022-10-31T17:42:23;101171.38;;;10.92;100.00
62124;BME280;48110;47.532;19.078;2022-10-31T17:45:31;101167.56;;;10.95;100.00
62124;BME280;48110;47.532;19.078;2022-10-31T17:48:40;101170.84;;;10.88;100.00
62124;BME280;48110;47.532;19.078;2022-10-31T17:51:50;101167.19;;;10.89;100.00
62124;BME280;48110;47.532;19.078;2022-10-31T17:54:57;101170.66;;;10.90;100.00
62124;BME280;48110;47.532;19.078;2022-10-31T17:58:07;101173.38;;;10.80;100.00